Time;durP1;ratioP1;P1;durP2;ratioP2;P2;SDS_P1;SDS_P2;PMS_P1;PMS_P2;Temp;Humidity;BMP_temperature;BMP_pressure;BME280_temperature;BME280_humidity;BME280_pressure;Samples;Min_cycle;Max_cycle;Signal;HPM_P1;HPM_P2
2023/06/09 00:00:47;;;;;;;8.70;4.93;;;;;;;19.61;68.77;94658.72;5054332;28;20437;-79
2023/06/09 00:03:16;;;;;;;9.03;4.60;;;;;;;19.69;68.98;94653.28;5053451;28;20457;-79
2023/06/09 00:05:43;;;;;;;5.70;4.70;;;;;;;19.75;68.94;94663.97;5054162;28;20453;-79
2023/06/09 00:08:11;;;;;;;5.17;4.40;;;;;;;19.69;68.69;94659.41;5053767;28;20939;-79
2023/06/09 00:10:38;;;;;;;7.00;5.33;;;;;;;19.78;70.38;94660.94;5035300;28;20449;-79
2023/06/09 00:13:05;;;;;;;5.67;5.10;;;;;;;19.62;69.17;94666.50;5053426;28;20507;-79
2023/06/09 00:15:33;;;;;;;5.87;4.83;;;;;;;19.53;69.00;94672.13;5054165;28;20453;-79
2023/06/09 00:18:02;;;;;;;5.50;4.97;;;;;;;19.44;68.75;94666.09;5053848;28;20446;-79
2023/06/09 00:20:33;;;;;;;8.13;4.93;;;;;;;19.47;69.75;94665.72;5034960;28;20436;-79
2023/06/09 00:23:00;;;;;;;5.87;5.20;;;;;;;19.48;69.13;94672.69;5053279;28;20490;-79
2023/06/09 00:25:27;;;;;;;6.40;4.90;;;;;;;19.44;68.58;94668.78;5053652;28;20902;-79
2023/06/09 00:27:54;;;;;;;9.50;4.60;;;;;;;19.41;68.64;94666.50;5053401;28;20457;-79
2023/06/09 00:30:22;;;;;;;6.50;4.87;;;;;;;19.38;68.73;94670.34;5053593;28;20441;-79
2023/06/09 00:32:50;;;;;;;7.10;4.53;;;;;;;19.44;68.59;94669.59;5053494;28;20994;-79
2023/06/09 00:35:17;;;;;;;6.70;4.73;;;;;;;19.49;68.39;94667.19;5052932;28;20791;-79
2023/06/09 00:37:46;;;;;;;6.70;4.77;;;;;;;19.50;68.23;94670.66;5053437;28;20446;-79
2023/06/09 00:40:14;;;;;;;9.20;4.50;;;;;;;19.53;67.67;94670.31;5053659;28;20448;-79
2023/06/09 00:42:41;;;;;;;5.00;4.50;;;;;;;19.49;67.88;94667.19;5053315;28;20457;-79
2023/06/09 00:45:08;;;;;;;4.63;4.23;;;;;;;19.56;68.70;94669.94;5053674;28;20481;-79
2023/06/09 00:47:36;;;;;;;5.30;4.40;;;;;;;19.57;68.55;94654.78;5053377;28;20446;-79
2023/06/09 00:50:05;;;;;;;6.13;5.30;;;;;;;19.53;65.98;94662.34;5051198;28;20446;-79
2023/06/09 00:52:32;;;;;;;4.97;4.53;;;;;;;19.54;66.28;94657.81;5053223;28;20481;-79
2023/06/09 00:54:59;;;;;;;5.00;4.50;;;;;;;19.54;65.14;94665.81;5053264;28;20507;-79
2023/06/09 00:57:29;;;;;;;5.53;4.20;;;;;;;19.53;65.34;94670.31;5053025;28;20446;-79
2023/06/09 00:59:57;;;;;;;5.53;4.00;;;;;;;19.60;65.53;94665.88;5052569;28;20951;-79
2023/06/09 01:02:24;;;;;;;4.70;4.30;;;;;;;19.60;65.94;94665.88;5053144;28;20989;-79
2023/06/09 01:04:51;;;;;;;5.10;4.60;;;;;;;19.57;67.65;94662.78;5052955;28;20473;-78
2023/06/09 01:07:30;;;;;;;6.30;4.60;;;;;;;19.54;66.73;94666.63;5052802;28;20795;-80
2023/06/09 01:10:05;;;;;;;7.43;5.30;;;;;;;19.56;65.68;94659.28;5056813;28;20449;-79
2023/06/09 01:12:45;;;;;;;8.03;5.17;;;;;;;19.54;67.37;94656.00;5057137;28;20873;-79
2023/06/09 01:15:19;;;;;;;4.70;3.93;;;;;;;19.52;67.37;94663.31;5056763;28;20503;-79
2023/06/09 01:17:52;;;;;;;5.60;5.10;;;;;;;19.40;65.88;94647.03;5057025;28;20507;-79
2023/06/09 01:20:27;;;;;;;6.60;4.90;;;;;;;19.43;66.35;94656.47;5057078;28;20474;-79
2023/06/09 01:23:03;;;;;;;7.13;4.30;;;;;;;19.29;67.45;94654.69;5039063;28;20511;-79
2023/06/09 01:25:35;;;;;;;5.60;5.10;;;;;;;19.10;66.28;94651.66;5056927;28;20451;-79
2023/06/09 01:28:06;;;;;;;7.60;5.60;;;;;;;18.99;67.38;94656.59;5056497;28;20477;-79
2023/06/09 01:30:34;;;;;;;5.33;4.90;;;;;;;18.99;67.14;94652.13;5056534;28;20476;-79
2023/06/09 01:33:06;;;;;;;5.10;4.67;;;;;;;18.95;67.88;94655.34;5056367;28;21321;-79
2023/06/09 01:35:33;;;;;;;5.30;4.80;;;;;;;18.88;67.45;94661.41;5056438;28;20452;-79
2023/06/09 01:38:00;;;;;;;6.67;4.90;;;;;;;18.88;67.14;94671.22;5056656;28;20451;-79
2023/06/09 01:40:27;;;;;;;7.43;4.60;;;;;;;18.84;66.61;94661.97;5056074;28;20528;-79
2023/06/09 01:42:58;;;;;;;4.90;4.50;;;;;;;18.87;67.06;94674.88;5056503;28;20457;-79
2023/06/09 01:45:27;;;;;;;6.30;4.93;;;;;;;18.88;66.67;94673.88;5056513;28;20573;-79
2023/06/09 01:47:54;;;;;;;6.80;5.37;;;;;;;18.90;66.22;94676.34;5056661;28;20449;-79
2023/06/09 01:50:30;;;;;;;8.63;4.50;;;;;;;18.90;66.55;94673.69;5056198;28;20527;-79
2023/06/09 01:53:02;;;;;;;4.67;4.27;;;;;;;18.91;66.73;94672.69;5056424;28;21072;-79
2023/06/09 01:55:35;;;;;;;5.23;4.07;;;;;;;18.90;66.74;94673.69;5037420;28;20439;-80
2023/06/09 01:58:09;;;;;;;7.63;4.80;;;;;;;18.86;68.07;94671.41;5055866;28;20942;-79
2023/06/09 02:00:36;;;;;;;12.30;4.97;;;;;;;18.87;67.00;94670.41;5037778;28;20529;-79
2023/06/09 02:03:06;;;;;;;5.93;4.43;;;;;;;18.91;67.32;94670.84;5056271;28;20461;-79
2023/06/09 02:05:35;;;;;;;7.83;4.77;;;;;;;18.91;66.97;94675.34;5055998;28;20989;-79
2023/06/09 02:08:04;;;;;;;4.47;4.17;;;;;;;18.89;66.76;94670.22;5056647;28;20585;-79
2023/06/09 02:10:31;;;;;;;6.27;4.83;;;;;;;18.87;67.05;94669.56;5037292;28;20514;-79
2023/06/09 02:12:58;;;;;;;6.07;5.30;;;;;;;18.80;67.04;94674.00;5055487;28;20575;-79
2023/06/09 02:15:27;;;;;;;8.10;4.03;;;;;;;18.74;68.34;94675.53;5055761;28;20451;-79
2023/06/09 02:17:54;;;;;;;5.33;4.83;;;;;;;18.64;67.66;94675.00;5056274;28;20440;-79
2023/06/09 02:20:22;;;;;;;4.93;4.43;;;;;;;18.58;68.54;94671.22;5055017;28;20443;-79
2023/06/09 02:22:48;;;;;;;8.80;4.83;;;;;;;18.56;67.84;94670.59;5055851;28;20444;-79
2023/06/09 02:25:15;;;;;;;5.10;4.60;;;;;;;18.55;68.38;94671.59;5055570;28;20438;-79
2023/06/09 02:27:45;;;;;;;7.33;5.40;;;;;;;18.50;68.92;94673.13;5055505;28;20800;-79
2023/06/09 02:30:12;;;;;;;6.27;5.40;;;;;;;18.32;67.63;94670.84;5055363;28;20452;-79
2023/06/09 02:32:43;;;;;;;7.20;4.70;;;;;;;18.29;69.21;94676.53;5055396;28;20509;-79
2023/06/09 02:35:10;;;;;;;5.73;5.23;;;;;;;18.32;69.61;94675.34;5036770;28;20496;-79
2023/06/09 02:37:37;;;;;;;10.20;5.30;;;;;;;18.22;69.94;94671.13;5055459;28;20555;-79
2023/06/09 02:40:06;;;;;;;8.33;5.50;;;;;;;18.17;71.35;94677.97;5053321;28;20473;-79
2023/06/09 02:42:33;;;;;;;6.70;5.10;;;;;;;18.18;71.01;94677.78;5037052;28;20520;-79
2023/06/09 02:45:00;;;;;;;6.00;5.20;;;;;;;18.19;71.44;94676.78;5036771;28;20529;-79
2023/06/09 02:47:27;;;;;;;5.77;4.27;;;;;;;18.11;70.52;94678.72;5055471;28;20510;-79
2023/06/09 02:49:55;;;;;;;6.33;5.13;;;;;;;18.08;69.55;94673.75;5055044;28;20850;-79
2023/06/09 02:52:22;;;;;;;5.00;4.20;;;;;;;18.09;69.16;94675.41;5055084;28;20487;-79
2023/06/09 02:54:48;;;;;;;5.30;4.80;;;;;;;18.05;68.39;94669.63;5055161;28;20447;-79
2023/06/09 02:57:15;;;;;;;5.20;4.70;;;;;;;18.10;69.24;94674.41;5036201;28;20518;-79
2023/06/09 02:59:42;;;;;;;5.20;4.17;;;;;;;18.18;69.13;94671.66;5054756;28;20452;-79
2023/06/09 03:02:09;;;;;;;4.67;4.13;;;;;;;18.15;68.52;94669.38;5036268;28;20450;-79
2023/06/09 03:04:36;;;;;;;9.33;4.30;;;;;;;18.12;68.63;94667.06;5054638;28;20860;-79
2023/06/09 03:07:04;;;;;;;10.90;4.63;;;;;;;18.16;68.16;94665.69;5054869;28;20549;-79
2023/06/09 03:09:31;;;;;;;6.60;4.90;;;;;;;18.10;67.90;94666.44;5035889;28;20505;-79
2023/06/09 03:11:57;;;;;;;5.57;4.67;;;;;;;18.09;69.34;94662.13;5054786;28;20485;-79
2023/06/09 03:14:25;;;;;;;9.43;4.00;;;;;;;18.04;68.05;94660.03;5054215;28;20450;-79
2023/06/09 03:16:52;;;;;;;4.70;4.40;;;;;;;18.09;67.86;94656.81;5052893;28;20457;-79
2023/06/09 03:19:19;;;;;;;6.37;4.10;;;;;;;18.10;66.23;94661.13;5053186;28;20450;-80
2023/06/09 03:21:46;;;;;;;6.53;3.80;;;;;;;18.21;66.14;94661.53;5034645;28;20947;-79
2023/06/09 03:24:14;;;;;;;8.43;4.40;;;;;;;18.32;65.72;94662.88;5053127;28;20443;-79
2023/06/09 03:26:41;;;;;;;4.27;3.87;;;;;;;18.36;64.75;94656.19;5053107;28;20458;-79
2023/06/09 03:29:08;;;;;;;8.17;4.80;;;;;;;18.57;65.04;94652.81;5053452;28;20887;-79
2023/06/09 03:31:34;;;;;;;5.00;4.30;;;;;;;18.78;64.96;94657.38;5050064;28;20453;-80
2023/06/09 03:34:01;;;;;;;4.07;3.67;;;;;;;19.00;63.76;94653.75;5053357;28;20460;-79
2023/06/09 03:36:28;;;;;;;3.60;3.30;;;;;;;19.19;63.14;94660.31;5052080;28;20465;-79
2023/06/09 03:38:55;;;;;;;8.00;4.03;;;;;;;19.46;61.24;94664.91;5054047;28;20441;-79
2023/06/09 03:41:24;;;;;;;4.50;4.10;;;;;;;19.66;59.72;94661.63;5054074;28;20442;-79
2023/06/09 03:43:51;;;;;;;4.30;3.33;;;;;;;20.01;60.22;94663.38;5053100;28;20478;-79
2023/06/09 03:46:18;;;;;;;4.13;3.57;;;;;;;20.30;59.89;94658.84;5053964;28;20504;-79
2023/06/09 03:48:45;;;;;;;6.40;4.43;;;;;;;20.56;59.04;94658.22;5053926;28;20450;-79
2023/06/09 03:51:12;;;;;;;5.97;4.00;;;;;;;20.72;57.51;94660.56;5054078;28;20496;-79
2023/06/09 03:53:39;;;;;;;5.07;4.47;;;;;;;21.00;57.41;94657.78;5053739;28;20566;-79
2023/06/09 03:56:05;;;;;;;5.87;3.60;;;;;;;21.40;56.52;94668.66;5053857;28;20441;-79
2023/06/09 03:58:34;;;;;;;4.23;3.83;;;;;;;21.74;58.56;94665.00;5054172;28;21552;-85
2023/06/09 04:01:01;;;;;;;5.23;3.60;;;;;;;22.07;55.42;94665.03;5053579;28;20983;-85
2023/06/09 04:03:28;;;;;;;4.30;3.90;;;;;;;22.36;53.23;94659.25;5053775;28;20516;-84
2023/06/09 04:05:54;;;;;;;8.23;3.90;;;;;;;22.65;52.88;94668.66;5053693;28;20478;-84
2023/06/09 04:08:21;;;;;;;4.60;4.17;;;;;;;22.97;51.60;94674.16;5054001;28;20452;-80
2023/06/09 04:10:48;;;;;;;4.83;3.80;;;;;;;23.10;51.39;94674.91;5053433;28;20446;-80
2023/06/09 04:13:14;;;;;;;3.60;3.30;;;;;;;23.41;54.28;94668.78;5053470;28;20507;-81
2023/06/09 04:15:43;;;;;;;4.33;3.70;;;;;;;23.77;52.57;94672.75;5052795;28;20502;-81
2023/06/09 04:18:09;;;;;;;5.70;4.10;;;;;;;24.12;52.40;94669.59;5053668;28;20505;-81
2023/06/09 04:20:36;;;;;;;4.80;3.50;;;;;;;24.29;49.06;94671.53;5053590;28;20433;-80
2023/06/09 04:23:03;;;;;;;5.73;4.87;;;;;;;24.44;49.38;94673.88;5053375;28;20515;-80
2023/06/09 04:25:30;;;;;;;4.77;3.90;;;;;;;24.38;48.12;94675.56;5053099;28;20532;-80
2023/06/09 04:28:00;;;;;;;4.70;3.73;;;;;;;24.25;48.10;94675.66;5018313;28;20448;-80
2023/06/09 04:30:29;;;;;;;5.30;4.37;;;;;;;24.30;49.53;94680.41;5053136;28;20545;-81
2023/06/09 04:32:59;;;;;;;10.10;5.47;;;;;;;24.40;49.82;94684.22;5053331;28;20520;-80
2023/06/09 04:35:27;;;;;;;6.37;4.17;;;;;;;24.52;49.63;94689.69;5053702;28;20495;-80
2023/06/09 04:37:54;;;;;;;9.83;4.67;;;;;;;24.70;48.98;94691.56;5053498;28;20465;-81
2023/06/09 04:40:25;;;;;;;7.63;5.10;;;;;;;24.87;49.02;94695.34;5053374;28;20504;-80
2023/06/09 04:42:53;;;;;;;5.67;4.97;;;;;;;24.76;47.88;94693.38;5052736;28;20450;-81
2023/06/09 04:45:25;;;;;;;8.63;5.43;;;;;;;24.48;48.82;94684.97;5053020;28;20535;-80
2023/06/09 04:47:52;;;;;;;6.17;4.60;;;;;;;24.52;48.77;94687.00;5053165;28;20452;-80
2023/06/09 04:50:21;;;;;;;4.50;4.10;;;;;;;24.50;47.94;94682.88;5053269;28;20453;-80
2023/06/09 04:52:48;;;;;;;7.43;4.27;;;;;;;24.76;48.87;94692.53;5053179;28;20912;-80
2023/06/09 04:55:15;;;;;;;16.33;3.90;;;;;;;25.02;48.52;94686.91;5053289;28;20437;-80
2023/06/09 04:57:43;;;;;;;6.93;4.70;;;;;;;24.88;47.79;94685.41;5053329;28;20448;-80
2023/06/09 05:00:15;;;;;;;5.17;4.67;;;;;;;25.14;49.03;94690.47;5053086;28;20805;-79
2023/06/09 05:02:42;;;;;;;10.00;5.10;;;;;;;25.44;48.56;94689.69;5052943;28;20786;-79
2023/06/09 05:05:10;;;;;;;19.77;5.20;;;;;;;25.72;56.51;94686.47;5052776;28;20442;-79
2023/06/09 05:07:39;;;;;;;4.93;4.43;;;;;;;25.95;50.85;94686.53;5052882;28;20437;-80
2023/06/09 05:10:07;;;;;;;5.23;4.03;;;;;;;26.14;49.67;94689.97;5053086;28;20468;-79
2023/06/09 05:12:34;;;;;;;5.93;3.83;;;;;;;26.42;52.78;94687.47;5017919;28;20477;-79
2023/06/09 05:15:01;;;;;;;4.50;4.10;;;;;;;26.72;47.42;94686.56;5052652;28;20449;-80
2023/06/09 05:17:28;;;;;;;7.20;3.60;;;;;;;26.92;43.96;94681.63;5052982;28;20499;-80
2023/06/09 05:19:54;;;;;;;5.43;4.00;;;;;;;27.17;46.39;94689.44;5052955;28;20767;-79
2023/06/09 05:22:21;;;;;;;5.70;4.43;;;;;;;27.39;45.37;94681.53;5033940;28;20442;-79
2023/06/09 05:24:49;;;;;;;5.10;4.20;;;;;;;27.58;43.27;94679.50;5033432;28;20516;-79
2023/06/09 05:27:16;;;;;;;12.20;4.20;;;;;;;27.89;41.63;94683.59;5050682;28;20524;-80
2023/06/09 05:29:44;;;;;;;5.00;4.43;;;;;;;28.14;41.61;94683.22;5047050;28;20488;-79
2023/06/09 05:32:10;;;;;;;8.73;4.53;;;;;;;28.17;40.11;94674.66;5052912;28;20499;-80
2023/06/09 05:34:37;;;;;;;8.30;4.43;;;;;;;28.23;39.39;94671.78;5038763;28;20829;-84
2023/06/09 05:37:05;;;;;;;5.90;4.70;;;;;;;27.91;39.08;94678.78;5033194;28;20458;-80
2023/06/09 05:39:32;;;;;;;10.23;4.83;;;;;;;27.71;40.80;94674.63;5034491;28;20537;-81
2023/06/09 05:42:00;;;;;;;13.90;4.97;;;;;;;27.87;40.23;94673.06;5052339;28;20457;-80
2023/06/09 05:44:28;;;;;;;8.13;4.50;;;;;;;28.01;44.68;94677.06;5053014;28;20469;-80
2023/06/09 05:46:55;;;;;;;9.07;4.30;;;;;;;28.16;40.28;94676.53;5052620;28;20446;-80
2023/06/09 05:49:22;;;;;;;8.33;4.33;;;;;;;28.23;39.23;94674.47;5017582;28;20480;-81
2023/06/09 05:51:49;;;;;;;5.27;4.07;;;;;;;28.17;40.99;94669.25;5052181;28;20442;-81
2023/06/09 05:54:16;;;;;;;8.13;5.77;;;;;;;28.29;40.81;94672.72;5052573;28;20481;-80
2023/06/09 05:56:44;;;;;;;5.70;5.07;;;;;;;28.21;41.13;94671.22;5055940;28;20499;-81
2023/06/09 05:59:13;;;;;;;5.50;4.50;;;;;;;28.31;41.40;94679.50;5055355;28;20446;-81
2023/06/09 06:01:41;;;;;;;9.70;4.33;;;;;;;28.54;40.18;94666.88;5052425;28;20473;-81
2023/06/09 06:04:08;;;;;;;7.70;3.80;;;;;;;28.83;40.14;94670.28;5054977;28;20445;-81
2023/06/09 06:06:37;;;;;;;18.30;6.73;;;;;;;29.02;39.82;94668.16;5054757;28;20446;-81
2023/06/09 06:09:04;;;;;;;5.17;3.97;;;;;;;29.06;39.35;94664.69;5054272;28;21011;-80
2023/06/09 06:11:31;;;;;;;9.57;5.20;;;;;;;28.94;40.08;94672.94;5054494;28;20485;-81
2023/06/09 06:13:58;;;;;;;8.17;5.57;;;;;;;28.30;41.25;94661.66;5054411;28;20567;-80
2023/06/09 06:16:26;;;;;;;9.17;5.60;;;;;;;28.05;41.89;94664.75;5054381;28;20507;-81
2023/06/09 06:18:53;;;;;;;6.37;5.50;;;;;;;27.99;42.48;94664.88;5054621;28;20936;-80
2023/06/09 06:21:19;;;;;;;9.90;5.77;;;;;;;27.85;40.64;94655.47;5054362;28;20843;-81
2023/06/09 06:23:46;;;;;;;6.50;5.00;;;;;;;28.01;40.56;94646.56;5054697;28;20978;-81
2023/06/09 06:26:13;;;;;;;6.30;4.30;;;;;;;28.04;42.13;94646.91;5055140;28;20438;-81
2023/06/09 06:28:40;;;;;;;8.27;3.80;;;;;;;28.23;41.04;94652.88;5054014;28;20461;-80
2023/06/09 06:31:07;;;;;;;6.80;4.40;;;;;;;28.47;40.61;94648.16;5054156;28;20438;-81
2023/06/09 06:33:35;;;;;;;8.57;5.00;;;;;;;28.69;40.71;94648.22;5055681;28;20485;-81
2023/06/09 06:36:02;;;;;;;8.80;5.90;;;;;;;28.64;39.25;94653.56;5020458;28;20450;-81
2023/06/09 06:38:29;;;;;;;5.13;4.67;;;;;;;28.29;39.38;94651.94;5055591;28;20442;-81
2023/06/09 06:40:56;;;;;;;4.77;4.37;;;;;;;28.33;39.94;94652.25;5055648;28;20452;-81
2023/06/09 06:43:22;;;;;;;6.37;4.40;;;;;;;28.49;40.02;94647.91;5055251;28;20490;-81
2023/06/09 06:45:49;;;;;;;5.50;5.00;;;;;;;28.52;39.37;94650.94;5055466;28;20454;-82
2023/06/09 06:48:16;;;;;;;9.50;4.80;;;;;;;28.60;38.61;94644.28;5055716;28;20436;-81
2023/06/09 06:50:44;;;;;;;5.20;4.80;;;;;;;28.88;39.53;94635.25;5055431;28;20845;-80
2023/06/09 06:53:11;;;;;;;6.13;4.90;;;;;;;29.11;39.88;94642.31;5055228;28;20489;-81
2023/06/09 06:55:38;;;;;;;9.20;4.90;;;;;;;29.19;39.16;94640.00;5055036;28;20917;-81
2023/06/09 06:58:05;;;;;;;7.80;4.50;;;;;;;29.17;38.82;94639.44;5055013;28;20932;-81
2023/06/09 07:00:31;;;;;;;4.90;4.50;;;;;;;29.29;39.67;94640.13;5055256;28;20430;-82
2023/06/09 07:02:58;;;;;;;7.53;4.53;;;;;;;28.76;39.21;94637.25;5036422;28;20437;-81
2023/06/09 07:05:25;;;;;;;8.90;5.00;;;;;;;28.65;39.70;94644.41;5054699;28;20977;-81
2023/06/09 07:07:53;;;;;;;6.00;4.50;;;;;;;28.55;40.48;94636.94;5054075;28;20453;-82
2023/06/09 07:10:20;;;;;;;7.70;4.80;;;;;;;28.31;41.23;94633.59;5053117;28;20449;-81
2023/06/09 07:12:47;;;;;;;7.67;5.30;;;;;;;28.16;42.48;94637.94;5053433;28;20525;-81
2023/06/09 07:15:14;;;;;;;13.40;5.80;;;;;;;28.45;42.29;94636.81;5053690;28;20438;-82
2023/06/09 07:17:41;;;;;;;10.00;5.53;;;;;;;28.56;41.45;94635.06;5053316;28;20495;-81
2023/06/09 07:20:09;;;;;;;15.50;5.60;;;;;;;28.70;42.32;94633.66;5053243;28;20883;-81
2023/06/09 07:22:40;;;;;;;10.40;5.07;;;;;;;28.76;41.25;94626.44;5053269;28;20880;-81
2023/06/09 07:25:09;;;;;;;7.40;5.00;;;;;;;28.79;42.16;94629.47;5054819;28;20438;-81
2023/06/09 07:27:36;;;;;;;8.43;4.97;;;;;;;29.01;41.69;94642.22;5054447;28;21020;-81
2023/06/09 07:30:03;;;;;;;12.87;4.90;;;;;;;29.34;41.36;94633.97;5054265;28;20475;-81
2023/06/09 07:32:30;;;;;;;13.73;4.67;;;;;;;29.56;40.79;94637.50;5054623;28;20461;-81
2023/06/09 07:34:57;;;;;;;13.33;5.00;;;;;;;29.20;40.97;94640.81;5054484;28;20486;-81
2023/06/09 07:37:25;;;;;;;6.53;4.03;;;;;;;29.08;41.84;94629.31;5054569;28;20872;-81
2023/06/09 07:39:51;;;;;;;8.23;4.63;;;;;;;29.25;41.52;94635.50;5054468;28;20445;-81
2023/06/09 07:42:20;;;;;;;12.50;5.13;;;;;;;29.45;40.66;94635.72;5053957;28;20488;-81
2023/06/09 07:44:46;;;;;;;12.03;5.03;;;;;;;29.40;40.12;94634.84;5054666;28;20473;-81
2023/06/09 07:47:13;;;;;;;6.90;5.20;;;;;;;29.41;39.65;94631.88;5054114;28;20842;-81
2023/06/09 07:49:40;;;;;;;11.13;5.63;;;;;;;29.42;40.48;94630.81;5054016;28;20445;-81
2023/06/09 07:52:09;;;;;;;9.43;5.30;;;;;;;29.39;39.53;94631.31;5054299;28;20556;-81
2023/06/09 07:54:35;;;;;;;9.60;5.30;;;;;;;29.51;40.61;94640.16;5053719;28;20572;-81
2023/06/09 07:57:02;;;;;;;12.70;7.20;;;;;;;29.68;40.82;94634.63;5054148;28;20441;-81
2023/06/09 07:59:31;;;;;;;9.00;5.47;;;;;;;29.95;40.69;94629.22;5053944;28;21097;-81
2023/06/09 08:01:57;;;;;;;9.43;5.03;;;;;;;29.66;39.44;94633.25;5053871;28;20452;-80
2023/06/09 08:04:25;;;;;;;6.50;5.00;;;;;;;29.66;41.61;94634.06;5053731;28;20453;-81
2023/06/09 08:06:52;;;;;;;13.50;5.40;;;;;;;29.78;41.19;94625.78;5019212;28;20442;-81
2023/06/09 08:09:19;;;;;;;11.80;6.27;;;;;;;29.61;40.74;94625.91;5018665;28;20441;-81
2023/06/09 08:11:46;;;;;;;11.13;5.70;;;;;;;29.43;40.85;94629.72;5053730;28;20456;-81
2023/06/09 08:14:13;;;;;;;7.93;5.37;;;;;;;29.33;41.93;94626.09;5053062;28;20487;-81
2023/06/09 08:16:41;;;;;;;9.23;5.77;;;;;;;28.42;44.39;94623.00;5052922;28;20481;-81
2023/06/09 08:19:07;;;;;;;11.30;4.80;;;;;;;28.19;42.92;94616.66;5051598;28;20453;-81
2023/06/09 08:21:34;;;;;;;7.00;4.83;;;;;;;27.90;44.10;94618.63;5052171;28;20441;-81
2023/06/09 08:24:01;;;;;;;6.50;5.10;;;;;;;27.65;44.41;94615.47;5052183;28;20454;-81
2023/06/09 08:26:28;;;;;;;6.67;5.87;;;;;;;27.32;45.89;94608.09;5052161;28;20441;-81
2023/06/09 08:28:55;;;;;;;7.20;5.40;;;;;;;27.63;45.56;94607.63;5052059;28;20442;-81
2023/06/09 08:31:24;;;;;;;10.13;4.90;;;;;;;27.92;45.27;94607.59;5052054;28;20525;-81
2023/06/09 08:33:53;;;;;;;9.30;5.30;;;;;;;28.29;44.79;94597.94;5052293;28;20492;-80
2023/06/09 08:36:20;;;;;;;8.20;5.50;;;;;;;28.72;42.92;94601.00;5052094;28;20454;-81
2023/06/09 08:38:47;;;;;;;8.77;5.27;;;;;;;28.86;43.53;94602.28;5052127;28;20495;-81
2023/06/09 08:41:16;;;;;;;8.10;5.10;;;;;;;28.86;43.00;94597.69;5052908;28;20525;-80
2023/06/09 08:43:43;;;;;;;7.00;4.53;;;;;;;28.75;43.67;94604.00;5053124;28;20505;-80
2023/06/09 08:46:11;;;;;;;11.20;4.93;;;;;;;28.49;43.87;94602.84;5053667;28;20445;-81
2023/06/09 08:48:42;;;;;;;8.33;5.40;;;;;;;28.77;43.87;94599.19;5053631;28;20441;-81
2023/06/09 08:51:10;;;;;;;8.10;5.67;;;;;;;28.89;42.74;94593.69;5052933;28;20951;-80
2023/06/09 08:53:37;;;;;;;6.00;4.77;;;;;;;28.79;43.83;94593.53;5053124;28;20488;-81
2023/06/09 08:56:04;;;;;;;4.83;4.43;;;;;;;28.86;42.40;94591.47;5052798;28;20433;-81
2023/06/09 08:58:32;;;;;;;5.00;4.60;;;;;;;28.86;41.71;94591.47;5052834;28;20449;-80
2023/06/09 09:00:59;;;;;;;5.27;4.87;;;;;;;28.77;41.78;94585.69;5053479;28;20437;-80
2023/06/09 09:03:26;;;;;;;5.30;4.80;;;;;;;28.90;44.01;94596.13;5053084;28;20495;-83
2023/06/09 09:05:52;;;;;;;5.20;4.80;;;;;;;29.01;42.65;94591.69;5053148;28;20453;-81
2023/06/09 09:08:21;;;;;;;5.40;4.97;;;;;;;28.82;43.83;94591.13;5053304;28;20438;-81
2023/06/09 09:10:48;;;;;;;5.47;4.90;;;;;;;28.81;42.88;94584.09;5052899;28;20846;-80
2023/06/09 09:13:17;;;;;;;10.80;5.23;;;;;;;28.82;42.74;94576.81;5052648;28;20785;-80
2023/06/09 09:15:50;;;;;;;4.70;4.30;;;;;;;28.74;43.39;94582.66;5052980;28;20476;-80
2023/06/09 09:18:19;;;;;;;7.07;5.20;;;;;;;28.60;44.46;94566.00;5051970;28;20442;-80
2023/06/09 09:20:46;;;;;;;5.10;4.70;;;;;;;28.64;45.73;94569.84;5052786;28;20940;-82
2023/06/09 09:23:13;;;;;;;5.03;4.53;;;;;;;28.39;43.68;94564.91;5052479;28;20443;-85
2023/06/09 09:25:43;;;;;;;6.10;4.93;;;;;;;28.36;44.47;94563.53;5017564;28;20453;-83
2023/06/09 09:28:12;;;;;;;6.77;4.93;;;;;;;28.60;44.79;94574.91;5052924;28;20452;-83
2023/06/09 09:30:44;;;;;;;5.47;5.00;;;;;;;28.72;44.65;94569.41;5056171;28;20429;-82
2023/06/09 09:33:11;;;;;;;5.70;5.20;;;;;;;28.17;43.84;94564.81;5021320;28;20445;-82
2023/06/09 09:35:39;;;;;;;5.90;5.30;;;;;;;28.36;43.65;94558.13;5056097;28;20976;-83
2023/06/09 09:38:13;;;;;;;9.63;5.40;;;;;;;28.43;45.18;94562.53;5022390;28;20536;-83
2023/06/09 09:40:45;;;;;;;7.40;5.63;;;;;;;28.11;44.05;94557.72;5040242;28;20884;-83
2023/06/09 09:43:12;;;;;;;6.90;5.40;;;;;;;27.95;44.70;94558.53;5055498;28;20473;-82
2023/06/09 09:45:44;;;;;;;6.23;4.47;;;;;;;28.03;45.83;94558.13;5055624;28;20503;-82
2023/06/09 09:48:12;;;;;;;5.33;4.77;;;;;;;27.97;45.36;94548.31;5055801;28;20445;-82
2023/06/09 09:50:40;;;;;;;7.13;4.93;;;;;;;27.69;44.70;94552.72;5055282;28;20511;-82
2023/06/09 09:53:07;;;;;;;5.30;4.80;;;;;;;27.70;44.82;94542.75;5055996;28;20445;-82
2023/06/09 09:55:35;;;;;;;7.40;6.70;;;;;;;27.82;45.30;94550.78;5056019;28;20485;-82
2023/06/09 09:58:06;;;;;;;8.87;5.23;;;;;;;27.86;46.70;94546.53;5056198;28;20487;-82
2023/06/09 10:00:35;;;;;;;13.63;6.93;;;;;;;27.63;48.85;94548.31;5055984;28;20434;-82
2023/06/09 10:03:08;;;;;;;7.97;4.90;;;;;;;27.40;46.94;94530.38;5038099;28;20441;-82
2023/06/09 10:05:38;;;;;;;5.80;5.23;;;;;;;27.22;48.61;94537.88;5056108;28;20437;-82
2023/06/09 10:08:06;;;;;;;5.30;4.73;;;;;;;26.97;46.10;94538.97;5055904;28;20941;-82
2023/06/09 10:10:34;;;;;;;16.73;8.47;;;;;;;27.09;46.11;94542.47;5055854;28;20442;-83
2023/06/09 10:13:03;;;;;;;13.33;6.33;;;;;;;27.30;45.48;94535.59;5055803;28;20517;-82
2023/06/09 10:15:32;;;;;;;38.53;15.17;;;;;;;27.58;47.45;94536.59;5056059;28;20568;-82
2023/06/09 10:18:01;;;;;;;47.27;16.23;;;;;;;27.81;48.29;94541.88;5055464;28;20492;-83
2023/06/09 10:20:28;;;;;;;40.40;13.97;;;;;;;28.07;46.29;94526.91;5055454;28;20458;-83
2023/06/09 10:22:55;;;;;;;14.27;7.27;;;;;;;28.25;45.56;94523.94;5055080;28;20533;-83
2023/06/09 10:25:25;;;;;;;130.37;36.10;;;;;;;28.24;48.04;94533.13;5055399;28;20445;-82
2023/06/09 10:27:52;;;;;;;19.20;9.13;;;;;;;28.26;44.83;94525.59;5054978;28;20525;-82
2023/06/09 10:30:22;;;;;;;6.87;5.53;;;;;;;28.37;43.63;94521.16;5055649;28;20484;-82
2023/06/09 10:32:57;;;;;;;7.93;5.73;;;;;;;28.28;44.02;94515.34;5054759;28;20453;-82
2023/06/09 10:35:28;;;;;;;5.50;5.00;;;;;;;28.20;43.55;94514.94;5055412;28;20560;-82
2023/06/09 10:37:58;;;;;;;7.50;6.17;;;;;;;28.24;45.28;94516.91;5055550;28;20507;-82
2023/06/09 10:40:31;;;;;;;8.63;5.70;;;;;;;28.16;43.76;94519.22;5055128;28;20452;-81
2023/06/09 10:46:14;;;;;;;11.00;5.17;;;;;;;28.05;44.75;94513.66;5032642;28;20939;-82
2023/06/09 10:48:42;;;;;;;6.40;5.80;;;;;;;28.14;43.03;94513.25;5033485;28;20513;-82
2023/06/09 10:51:43;;;;;;;8.10;5.33;;;;;;;28.21;44.21;94517.38;5033258;28;20509;-82
2023/06/09 10:54:20;;;;;;;8.50;5.00;;;;;;;28.25;42.68;94505.06;4974350;28;20453;-82
2023/06/09 10:56:52;;;;;;;7.13;5.30;;;;;;;28.17;41.88;94513.56;4974189;28;20449;-83
2023/06/09 11:02:50;;;;;;;5.23;4.67;;;;;;;28.28;40.22;94504.56;4954621;29;20438;-83
2023/06/09 11:05:18;;;;;;;7.17;5.40;;;;;;;28.24;43.43;94495.34;4975464;28;20453;-83
2023/06/09 11:07:51;;;;;;;7.97;5.83;;;;;;;28.24;40.95;94489.94;4993351;28;20923;-83
2023/06/09 11:10:37;;;;;;;6.10;5.60;;;;;;;28.23;44.09;94490.97;4993502;28;20437;-83
2023/06/09 11:13:38;;;;;;;7.17;5.80;;;;;;;28.29;44.15;94491.88;4993198;28;20492;-81
2023/06/09 11:16:05;;;;;;;9.13;5.50;;;;;;;28.29;43.56;94495.41;4935749;29;20565;-82
2023/06/09 11:22:05;;;;;;;5.63;4.30;;;;;;;28.49;43.78;94477.84;4935593;29;20422;-82
2023/06/09 11:24:47;;;;;;;6.17;4.80;;;;;;;28.62;43.42;94477.44;4950846;28;20841;-83
2023/06/09 11:27:18;;;;;;;6.23;4.30;;;;;;;28.76;41.53;94475.19;4993075;28;20526;-81
2023/06/09 11:29:44;;;;;;;9.53;4.90;;;;;;;28.82;40.38;94475.00;4976665;28;20832;-82
2023/06/09 11:32:12;;;;;;;7.37;5.17;;;;;;;28.90;38.97;94473.75;4993155;28;20445;-82
2023/06/09 11:34:55;;;;;;;6.17;5.47;;;;;;;28.94;39.43;94466.78;4992912;28;20484;-83
2023/06/09 11:37:24;;;;;;;8.27;5.60;;;;;;;28.99;38.85;94470.34;4992722;28;20551;-82
2023/06/09 11:39:52;;;;;;;5.50;5.00;;;;;;;29.01;41.25;94455.78;4992392;28;20448;-82
2023/06/09 11:42:22;;;;;;;5.23;4.73;;;;;;;29.14;40.32;94466.97;4992727;28;20895;-82
2023/06/09 11:44:49;;;;;;;5.90;5.40;;;;;;;29.12;40.67;94465.59;4992260;28;20484;-83
2023/06/09 11:50:42;;;;;;;36.50;6.90;;;;;;;27.99;47.01;94462.56;4992591;28;20523;-82